Hovedside
METAR-TAF:

METAR-TAF

Lufthavner :

Arvidsjaur, Sverige

Arvidsjaur lufthavn

breddegrad: 65-35-25N, lengdegrad: 019-16-55E, høyde over havet: 379 m

Gjeldene værobservasjon

Denne rapporten ble laget for 39 minutter siden, klokken 11:20 UTC
Vind 2 kt fra skiftende retning
Temperatur -2°C
Luftfuktighet 80%
Trykk 1020 hPa
Sikt 10 km eller mer

METAR: ESNX 221120Z AUTO VRB02KT 9999 FEW150/// M02/M05 Q1020

Tid: 13:59 (11:59 UTC)


TAF: fraværende

Værobservasjoner og værvarsel for over 4000 flyplasser (METAR- og TAF-rapporter).

Tilgjengelige stasjoner er representert av de røde og gule prikkene på kartet.

Hold musepekeren over prikken for å se navnet på stasjonen.

Klikk så for å se værobservasjoner og -varsler.

For å forandre kartet kan du klikke på den grønne knappen med svart kryss for å zoome inn, på den grønne knappen med strek for å zoome ut, eller på de grønne pilene for å se tilstøtende kart.


METAR-TAF: